Time;durP1;ratioP1;P1;durP2;ratioP2;P2;SDS_P1;SDS_P2;PMS_P1;PMS_P2;Temp;Humidity;BMP_temperature;BMP_pressure;BME280_temperature;BME280_humidity;BME280_pressure;Samples;Min_cycle;Max_cycle;Signal;HPM_P1;HPM_P2
2022/11/14 00:01:24;;;;;;;80.40;42.22;;;;;;;;;;5096357;28;20198;-64
2022/11/14 00:03:52;;;;;;;85.22;42.55;;;;;;;;;;5096250;28;20290;-67
2022/11/14 00:06:19;;;;;;;79.80;43.15;;;;;;;;;;5096151;28;20224;-64
2022/11/14 00:08:47;;;;;;;76.03;40.42;;;;;;;;;;5096124;28;20195;-64
2022/11/14 00:11:14;;;;;;;83.35;39.90;;;;;;;;;;5096225;28;20202;-64
2022/11/14 00:13:41;;;;;;;84.68;42.35;;;;;;;;;;5096171;28;20192;-64
2022/11/14 00:16:11;;;;;;;72.55;42.55;;;;;;;;;;5095687;28;20269;-65
2022/11/14 00:18:38;;;;;;;74.97;41.10;;;;;;;;;;5096279;28;20623;-64
2022/11/14 00:21:05;;;;;;;85.10;42.05;;;;;;;;;;5095773;28;20191;-64
2022/11/14 00:23:33;;;;;;;81.45;42.90;;;;;;;;;;5095886;28;20638;-64
2022/11/14 00:26:01;;;;;;;87.00;42.22;;;;;;;;;;5095782;28;20667;-64
2022/11/14 00:28:28;;;;;;;79.00;41.92;;;;;;;;;;5095890;28;20716;-64
2022/11/14 00:30:55;;;;;;;74.00;40.60;;;;;;;;;;5095746;28;20204;-64
2022/11/14 00:33:22;;;;;;;77.88;41.92;;;;;;;;;;5095806;28;20285;-65
2022/11/14 00:35:53;;;;;;;85.90;43.30;;;;;;;;;;5095776;28;20212;-64
2022/11/14 00:38:20;;;;;;;78.40;42.57;;;;;;;;;;5095876;28;20973;-64
2022/11/14 00:40:47;;;;;;;82.32;43.53;;;;;;;;;;5094596;28;20456;-64
2022/11/14 00:43:16;;;;;;;78.05;42.17;;;;;;;;;;5095616;28;20195;-64
2022/11/14 00:45:43;;;;;;;84.45;43.33;;;;;;;;;;5095881;28;20187;-64
2022/11/14 00:48:10;;;;;;;88.72;44.47;;;;;;;;;;5095351;28;20227;-64
2022/11/14 00:50:38;;;;;;;90.15;44.83;;;;;;;;;;5095464;28;20199;-64
2022/11/14 00:53:05;;;;;;;86.50;40.97;;;;;;;;;;5095447;28;20249;-64
2022/11/14 00:55:32;;;;;;;94.80;45.60;;;;;;;;;;5095202;28;20639;-64
2022/11/14 00:58:01;;;;;;;79.55;41.88;;;;;;;;;;5095343;28;20282;-64
2022/11/14 01:00:30;;;;;;;105.28;45.03;;;;;;;;;;5095395;28;20191;-64
2022/11/14 01:02:57;;;;;;;82.10;41.45;;;;;;;;;;5095236;28;20191;-64
2022/11/14 01:05:24;;;;;;;97.20;43.63;;;;;;;;;;5095286;28;20575;-65
2022/11/14 01:07:51;;;;;;;88.70;42.70;;;;;;;;;;5095381;28;20552;-64
2022/11/14 01:10:19;;;;;;;81.78;42.28;;;;;;;;;;5095053;28;20196;-64
2022/11/14 01:12:47;;;;;;;97.80;43.20;;;;;;;;;;5095349;28;20249;-64
2022/11/14 01:15:14;;;;;;;98.63;44.30;;;;;;;;;;5095107;28;20196;-64
2022/11/14 01:17:43;;;;;;;89.55;42.83;;;;;;;;;;5095022;28;20198;-64
2022/11/14 01:20:10;;;;;;;87.88;43.88;;;;;;;;;;5094991;28;20198;-64
2022/11/14 01:22:37;;;;;;;93.15;43.15;;;;;;;;;;5094738;28;20226;-65
2022/11/14 01:25:05;;;;;;;90.53;41.72;;;;;;;;;;5094612;28;20198;-64
2022/11/14 01:27:32;;;;;;;91.05;44.28;;;;;;;;;;5094701;28;20727;-64
2022/11/14 01:29:59;;;;;;;102.72;47.03;;;;;;;;;;5094602;28;20190;-64
2022/11/14 01:32:27;;;;;;;94.35;43.95;;;;;;;;;;5094693;28;20264;-64
2022/11/14 01:34:55;;;;;;;108.22;46.85;;;;;;;;;;5094524;28;20707;-64
2022/11/14 01:37:23;;;;;;;110.88;48.33;;;;;;;;;;5094373;28;20214;-64
2022/11/14 01:39:50;;;;;;;105.63;46.70;;;;;;;;;;5094708;28;20724;-64
2022/11/14 01:42:18;;;;;;;99.03;45.40;;;;;;;;;;5094758;28;20551;-64
2022/11/14 01:44:47;;;;;;;96.93;44.47;;;;;;;;;;5094295;28;20699;-64
2022/11/14 01:47:17;;;;;;;104.47;44.20;;;;;;;;;;5094177;28;20476;-64
2022/11/14 01:49:46;;;;;;;115.70;47.55;;;;;;;;;;5094696;28;20262;-64
2022/11/14 01:52:16;;;;;;;111.15;47.42;;;;;;;;;;5093988;28;20222;-64
2022/11/14 01:54:46;;;;;;;102.18;45.45;;;;;;;;;;5094253;28;20199;-64
2022/11/14 01:57:18;;;;;;;113.70;45.47;;;;;;;;;;5093935;28;20219;-64
2022/11/14 01:59:48;;;;;;;112.88;46.38;;;;;;;;;;5093998;28;20449;-64
2022/11/14 02:02:16;;;;;;;104.90;44.35;;;;;;;;;;5093492;28;20243;-64
2022/11/14 02:04:45;;;;;;;98.07;44.17;;;;;;;;;;5094306;28;20197;-64
2022/11/14 02:07:15;;;;;;;102.28;42.65;;;;;;;;;;5094106;28;20205;-64
2022/11/14 02:09:49;;;;;;;103.07;43.95;;;;;;;;;;5094058;28;20538;-64
2022/11/14 02:12:18;;;;;;;112.50;46.50;;;;;;;;;;5093419;28;20190;-64
2022/11/14 02:14:47;;;;;;;98.40;45.05;;;;;;;;;;5093590;28;20196;-64
2022/11/14 02:17:15;;;;;;;91.83;43.47;;;;;;;;;;5093491;28;20250;-65
2022/11/14 02:19:43;;;;;;;96.70;43.10;;;;;;;;;;5093684;28;20454;-64
2022/11/14 02:22:12;;;;;;;90.63;43.90;;;;;;;;;;5093909;28;20615;-64
2022/11/14 02:24:40;;;;;;;92.35;41.20;;;;;;;;;;5093499;28;20243;-64
2022/11/14 02:27:07;;;;;;;97.18;42.30;;;;;;;;;;5093467;28;20305;-64
2022/11/14 02:29:35;;;;;;;97.45;42.40;;;;;;;;;;5093410;28;20731;-64
2022/11/14 02:32:03;;;;;;;97.95;44.25;;;;;;;;;;5093394;28;20218;-64
2022/11/14 02:34:30;;;;;;;99.45;43.15;;;;;;;;;;5093587;28;20259;-66
2022/11/14 02:36:57;;;;;;;99.03;44.60;;;;;;;;;;5093506;28;20734;-65
2022/11/14 02:39:29;;;;;;;97.10;42.25;;;;;;;;;;5093218;28;20669;-65
2022/11/14 02:41:56;;;;;;;97.57;42.97;;;;;;;;;;5093265;28;20199;-65
2022/11/14 02:44:23;;;;;;;100.82;41.22;;;;;;;;;;5093249;28;20191;-65
2022/11/14 02:46:50;;;;;;;101.80;42.00;;;;;;;;;;5093078;28;20195;-66
2022/11/14 02:49:19;;;;;;;107.53;43.00;;;;;;;;;;5093178;28;20834;-65
2022/11/14 02:51:48;;;;;;;96.28;41.25;;;;;;;;;;5093428;28;20248;-65
2022/11/14 02:54:15;;;;;;;102.97;42.20;;;;;;;;;;5093220;28;20231;-65
2022/11/14 02:56:44;;;;;;;109.53;42.67;;;;;;;;;;5092942;28;20212;-65
2022/11/14 02:59:11;;;;;;;96.47;42.13;;;;;;;;;;5093370;28;20453;-65
2022/11/14 03:01:38;;;;;;;104.85;42.78;;;;;;;;;;5093004;28;20556;-65
2022/11/14 03:04:06;;;;;;;92.88;42.95;;;;;;;;;;5092573;28;20762;-65
2022/11/14 03:06:33;;;;;;;95.85;43.97;;;;;;;;;;5092933;28;20190;-65
2022/11/14 03:09:00;;;;;;;103.03;43.92;;;;;;;;;;5093103;28;20187;-65
2022/11/14 03:11:28;;;;;;;90.47;39.00;;;;;;;;;;5093006;28;20230;-65
2022/11/14 03:13:56;;;;;;;84.20;40.17;;;;;;;;;;5093302;28;20189;-65
2022/11/14 03:16:23;;;;;;;93.03;39.75;;;;;;;;;;5092931;28;20215;-65
2022/11/14 03:18:50;;;;;;;90.50;41.45;;;;;;;;;;5093077;28;20191;-65
2022/11/14 03:21:19;;;;;;;93.90;43.33;;;;;;;;;;5092910;28;20187;-65
2022/11/14 03:23:51;;;;;;;102.03;44.03;;;;;;;;;;5092820;28;20288;-67
2022/11/14 03:26:18;;;;;;;101.95;43.00;;;;;;;;;;5093022;28;20606;-65
2022/11/14 03:28:45;;;;;;;105.80;42.90;;;;;;;;;;5092577;28;20190;-66
2022/11/14 03:31:14;;;;;;;90.90;43.88;;;;;;;;;;5092690;28;20194;-65
2022/11/14 03:33:41;;;;;;;93.18;41.33;;;;;;;;;;5093022;28;20202;-65
2022/11/14 03:36:09;;;;;;;95.32;42.10;;;;;;;;;;5092683;28;20202;-65
2022/11/14 03:38:36;;;;;;;93.07;40.28;;;;;;;;;;5092642;28;20199;-65
2022/11/14 03:41:04;;;;;;;95.28;41.95;;;;;;;;;;5092863;28;20192;-65
2022/11/14 03:43:31;;;;;;;106.07;41.67;;;;;;;;;;5092839;28;20202;-65
2022/11/14 03:45:59;;;;;;;98.28;42.25;;;;;;;;;;5092821;28;20186;-65
2022/11/14 03:48:27;;;;;;;87.93;39.83;;;;;;;;;;5092785;28;20230;-65
2022/11/14 03:50:55;;;;;;;95.38;42.28;;;;;;;;;;5092177;28;20216;-65
2022/11/14 03:53:22;;;;;;;108.65;43.92;;;;;;;;;;5092637;28;20620;-65
2022/11/14 03:55:49;;;;;;;102.22;42.67;;;;;;;;;;5092170;28;20285;-65
2022/11/14 03:58:16;;;;;;;99.22;44.78;;;;;;;;;;5092596;28;20229;-65
2022/11/14 04:00:45;;;;;;;99.13;43.25;;;;;;;;;;5092573;28;20203;-65
2022/11/14 04:03:12;;;;;;;105.05;44.50;;;;;;;;;;5092490;28;20196;-65
2022/11/14 04:05:44;;;;;;;108.95;42.50;;;;;;;;;;5092441;28;20195;-65
2022/11/14 04:08:11;;;;;;;114.85;45.10;;;;;;;;;;5092686;28;20203;-65
2022/11/14 04:10:40;;;;;;;105.87;43.67;;;;;;;;;;5092559;28;20582;-65
2022/11/14 04:13:07;;;;;;;117.50;45.55;;;;;;;;;;5092569;28;20851;-65
2022/11/14 04:15:34;;;;;;;106.90;43.65;;;;;;;;;;5095791;28;20651;-65
2022/11/14 04:18:01;;;;;;;96.60;43.45;;;;;;;;;;5095922;28;20222;-65
2022/11/14 04:20:28;;;;;;;113.47;44.60;;;;;;;;;;5096201;28;20283;-64
2022/11/14 04:22:57;;;;;;;105.72;43.40;;;;;;;;;;5095928;28;20195;-65
2022/11/14 04:28:05;;;;;;;114.37;45.83;;;;;;;;;;5096101;28;20213;-65
2022/11/14 04:30:33;;;;;;;111.20;44.63;;;;;;;;;;5096017;28;20445;-65
2022/11/14 04:33:00;;;;;;;120.95;44.05;;;;;;;;;;5095381;28;20187;-65
2022/11/14 04:35:27;;;;;;;121.97;45.45;;;;;;;;;;5095915;28;20234;-65
2022/11/14 04:37:55;;;;;;;121.85;45.00;;;;;;;;;;5095546;28;20751;-65
2022/11/14 04:40:24;;;;;;;111.65;46.47;;;;;;;;;;5095667;28;20201;-65
2022/11/14 04:42:51;;;;;;;116.63;44.72;;;;;;;;;;5095839;28;20277;-65
2022/11/14 04:45:18;;;;;;;107.28;45.30;;;;;;;;;;5095709;28;20201;-65
2022/11/14 04:47:45;;;;;;;118.63;48.20;;;;;;;;;;5095595;28;20600;-65
2022/11/14 04:50:12;;;;;;;119.55;46.10;;;;;;;;;;5095613;28;20228;-65
2022/11/14 04:52:39;;;;;;;124.90;46.28;;;;;;;;;;5095470;28;20190;-65
2022/11/14 04:55:07;;;;;;;123.53;47.50;;;;;;;;;;5095664;28;20187;-65
2022/11/14 04:57:35;;;;;;;118.43;45.33;;;;;;;;;;5095136;28;20254;-65
2022/11/14 05:00:02;;;;;;;112.10;45.88;;;;;;;;;;5095314;28;20244;-65
2022/11/14 05:02:32;;;;;;;114.10;46.10;;;;;;;;;;5095404;28;20186;-65
2022/11/14 05:04:59;;;;;;;119.00;44.37;;;;;;;;;;5095353;28;20256;-65
2022/11/14 05:07:27;;;;;;;120.18;47.05;;;;;;;;;;5095126;28;20448;-65
2022/11/14 05:09:54;;;;;;;115.85;45.53;;;;;;;;;;5094970;28;20191;-66
2022/11/14 05:12:21;;;;;;;111.00;44.35;;;;;;;;;;5095171;28;20217;-66
2022/11/14 05:14:49;;;;;;;116.63;46.03;;;;;;;;;;5094961;28;20203;-64
2022/11/14 05:17:23;;;;;;;125.80;45.60;;;;;;;;;;5095091;28;20623;-69
2022/11/14 05:19:50;;;;;;;113.32;44.80;;;;;;;;;;5094274;28;20446;-66
2022/11/14 05:22:17;;;;;;;122.22;46.63;;;;;;;;;;5094775;28;20199;-66
2022/11/14 05:24:44;;;;;;;115.15;46.13;;;;;;;;;;5094937;28;20572;-64
2022/11/14 05:27:12;;;;;;;119.20;46.65;;;;;;;;;;5094120;28;20199;-64
2022/11/14 05:29:39;;;;;;;116.43;47.50;;;;;;;;;;5094817;28;20540;-65
2022/11/14 05:32:07;;;;;;;119.50;44.97;;;;;;;;;;5094657;28;20202;-66
2022/11/14 05:34:34;;;;;;;102.53;44.22;;;;;;;;;;5094565;28;20450;-65
2022/11/14 05:37:02;;;;;;;118.63;46.30;;;;;;;;;;5094434;28;20222;-65
2022/11/14 05:39:30;;;;;;;124.55;48.90;;;;;;;;;;5094418;28;20194;-65
2022/11/14 05:41:57;;;;;;;125.63;44.70;;;;;;;;;;5094705;28;20203;-65
2022/11/14 05:44:24;;;;;;;134.07;45.13;;;;;;;;;;5094428;28;20459;-65
2022/11/14 05:46:51;;;;;;;108.30;45.75;;;;;;;;;;5094276;28;20235;-65
2022/11/14 05:49:19;;;;;;;120.25;44.10;;;;;;;;;;5094272;28;20199;-65
2022/11/14 05:51:46;;;;;;;109.85;43.80;;;;;;;;;;5094445;28;20200;-65
2022/11/14 05:54:13;;;;;;;121.72;44.25;;;;;;;;;;5094364;28;20188;-65
2022/11/14 05:56:41;;;;;;;110.05;45.72;;;;;;;;;;5094299;28;20241;-65
2022/11/14 05:59:08;;;;;;;123.85;44.30;;;;;;;;;;5094138;28;20673;-64
2022/11/14 06:01:35;;;;;;;104.00;45.30;;;;;;;;;;5093965;28;20227;-64
2022/11/14 06:04:02;;;;;;;126.15;46.35;;;;;;;;;;5094004;28;20200;-64
2022/11/14 06:06:30;;;;;;;117.68;45.72;;;;;;;;;;5094077;28;20223;-64
2022/11/14 06:08:57;;;;;;;122.28;45.63;;;;;;;;;;5094087;28;20196;-64
2022/11/14 06:11:24;;;;;;;114.05;45.30;;;;;;;;;;5093892;28;20192;-64
2022/11/14 06:13:51;;;;;;;117.80;47.25;;;;;;;;;;5093816;28;20203;-64
2022/11/14 06:16:19;;;;;;;114.28;45.55;;;;;;;;;;5093736;28;20193;-64
2022/11/14 06:18:46;;;;;;;128.95;43.95;;;;;;;;;;5093522;28;20223;-64
2022/11/14 06:21:14;;;;;;;117.25;47.00;;;;;;;;;;5093908;28;20332;-63
2022/11/14 06:23:43;;;;;;;121.70;43.80;;;;;;;;;;5093580;28;20230;-63
2022/11/14 06:26:12;;;;;;;115.47;45.60;;;;;;;;;;5093488;28;20256;-63
2022/11/14 06:28:39;;;;;;;108.30;43.28;;;;;;;;;;5093345;28;20197;-63
2022/11/14 06:31:06;;;;;;;115.78;48.03;;;;;;;;;;5093197;28;20194;-63
2022/11/14 06:33:34;;;;;;;103.72;43.50;;;;;;;;;;5093261;28;20665;-63
2022/11/14 06:36:01;;;;;;;114.38;44.22;;;;;;;;;;5093172;28;20685;-63
2022/11/14 06:38:29;;;;;;;103.07;42.80;;;;;;;;;;5092342;28;20226;-63
2022/11/14 06:41:03;;;;;;;120.53;44.97;;;;;;;;;;5092918;28;20673;-63
2022/11/14 06:43:32;;;;;;;116.18;46.63;;;;;;;;;;5093089;28;20300;-63
2022/11/14 06:45:59;;;;;;;120.15;48.10;;;;;;;;;;5092881;28;20204;-64
2022/11/14 06:48:26;;;;;;;121.18;45.42;;;;;;;;;;5092672;28;20305;-63
2022/11/14 06:50:53;;;;;;;113.38;43.13;;;;;;;;;;5093038;28;20187;-63
2022/11/14 06:53:20;;;;;;;95.68;40.35;;;;;;;;;;5092909;28;20207;-64
2022/11/14 06:55:53;;;;;;;103.22;41.65;;;;;;;;;;5092938;28;20305;-63
2022/11/14 06:58:21;;;;;;;107.82;43.40;;;;;;;;;;5092723;28;20219;-63
2022/11/14 07:00:48;;;;;;;108.93;40.90;;;;;;;;;;5092920;28;20190;-63
2022/11/14 07:03:14;;;;;;;99.80;43.90;;;;;;;;;;5092792;28;20194;-63
2022/11/14 07:05:41;;;;;;;123.17;47.73;;;;;;;;;;5092916;28;20618;-64
2022/11/14 07:08:08;;;;;;;114.40;45.05;;;;;;;;;;5092711;28;20456;-63
2022/11/14 07:10:35;;;;;;;101.78;43.60;;;;;;;;;;5092686;28;20193;-63
2022/11/14 07:13:02;;;;;;;104.20;41.83;;;;;;;;;;5092939;28;20188;-64
2022/11/14 07:15:30;;;;;;;113.40;44.43;;;;;;;;;;5092728;28;20298;-63
2022/11/14 07:17:58;;;;;;;107.35;44.25;;;;;;;;;;5092552;28;20473;-63
2022/11/14 07:20:25;;;;;;;111.10;43.50;;;;;;;;;;5092773;28;20282;-63
2022/11/14 07:22:52;;;;;;;115.68;44.10;;;;;;;;;;5092774;28;20205;-63
2022/11/14 07:25:21;;;;;;;101.20;43.28;;;;;;;;;;5092462;28;20187;-63
2022/11/14 07:27:48;;;;;;;115.68;45.78;;;;;;;;;;5092672;28;20198;-63
2022/11/14 07:30:15;;;;;;;111.75;44.08;;;;;;;;;;5092653;28;20196;-64
2022/11/14 07:32:43;;;;;;;95.43;39.42;;;;;;;;;;5092640;28;20278;-64
2022/11/14 07:35:10;;;;;;;118.45;43.33;;;;;;;;;;5092427;28;20198;-64
2022/11/14 07:37:37;;;;;;;104.50;42.03;;;;;;;;;;5092330;28;20221;-64
2022/11/14 07:40:04;;;;;;;102.05;42.20;;;;;;;;;;5092482;28;20193;-64
2022/11/14 07:42:31;;;;;;;105.43;41.33;;;;;;;;;;5092630;28;20191;-64
2022/11/14 07:44:58;;;;;;;110.18;43.58;;;;;;;;;;5092449;28;20668;-64
2022/11/14 07:47:25;;;;;;;114.72;43.72;;;;;;;;;;5092396;28;20321;-64
2022/11/14 07:49:53;;;;;;;109.85;43.40;;;;;;;;;;5095251;28;20201;-64
2022/11/14 07:52:20;;;;;;;108.43;43.00;;;;;;;;;;5096247;28;20195;-64
2022/11/14 07:54:47;;;;;;;123.35;43.60;;;;;;;;;;5096403;28;20581;-64
2022/11/14 07:57:14;;;;;;;109.53;42.05;;;;;;;;;;5096399;28;20557;-64
2022/11/14 07:59:41;;;;;;;106.57;42.85;;;;;;;;;;5096277;28;20194;-64
2022/11/14 08:02:11;;;;;;;102.20;42.13;;;;;;;;;;5096108;28;20290;-64
2022/11/14 08:04:38;;;;;;;109.70;40.88;;;;;;;;;;5096015;28;20268;-64
2022/11/14 08:07:06;;;;;;;96.03;39.80;;;;;;;;;;5095948;28;20191;-64
2022/11/14 08:09:33;;;;;;;106.32;41.28;;;;;;;;;;5095896;28;20675;-64
2022/11/14 08:12:00;;;;;;;107.65;42.55;;;;;;;;;;5096154;28;20282;-64
2022/11/14 08:14:26;;;;;;;110.53;42.28;;;;;;;;;;5096037;28;20278;-64
2022/11/14 08:16:53;;;;;;;104.57;41.38;;;;;;;;;;5095841;28;20618;-64
2022/11/14 08:19:20;;;;;;;105.65;40.72;;;;;;;;;;5095713;28;20218;-64
2022/11/14 08:21:47;;;;;;;105.22;44.05;;;;;;;;;;5095135;28;20202;-64
2022/11/14 08:24:15;;;;;;;108.60;41.40;;;;;;;;;;5095700;28;20197;-64
2022/11/14 08:26:42;;;;;;;98.95;40.55;;;;;;;;;;5095787;28;20562;-64
2022/11/14 08:29:09;;;;;;;105.93;41.17;;;;;;;;;;5095571;28;20187;-64
2022/11/14 08:31:36;;;;;;;104.95;40.78;;;;;;;;;;5095517;28;20195;-64
2022/11/14 08:34:03;;;;;;;96.23;38.60;;;;;;;;;;5095666;28;20198;-64
2022/11/14 08:36:30;;;;;;;105.55;42.67;;;;;;;;;;5095311;28;20450;-62
2022/11/14 08:38:56;;;;;;;82.25;35.65;;;;;;;;;;5095424;28;20585;-62
2022/11/14 08:41:25;;;;;;;85.85;39.53;;;;;;;;;;5095586;28;20276;-62
2022/11/14 08:43:52;;;;;;;92.97;38.13;;;;;;;;;;5095385;28;20608;-63
2022/11/14 08:46:19;;;;;;;96.22;36.95;;;;;;;;;;5093506;28;20194;-63
2022/11/14 08:48:46;;;;;;;94.13;38.65;;;;;;;;;;5094744;28;20225;-63
2022/11/14 08:51:12;;;;;;;88.88;37.20;;;;;;;;;;5095272;28;20198;-63
2022/11/14 08:53:39;;;;;;;90.53;37.85;;;;;;;;;;5095034;28;20558;-63
2022/11/14 08:56:06;;;;;;;85.20;38.58;;;;;;;;;;5095171;28;20242;-63
2022/11/14 08:58:35;;;;;;;88.93;37.63;;;;;;;;;;5095002;28;20255;-63
2022/11/14 09:01:02;;;;;;;81.25;33.88;;;;;;;;;;5087559;28;21034;-63
2022/11/14 09:03:29;;;;;;;88.93;37.05;;;;;;;;;;5094843;28;20282;-63
2022/11/14 09:05:56;;;;;;;85.80;35.85;;;;;;;;;;5095190;28;20238;-62
2022/11/14 09:08:23;;;;;;;73.32;34.78;;;;;;;;;;5094805;28;20196;-62
2022/11/14 09:10:50;;;;;;;83.60;34.60;;;;;;;;;;5094735;28;20614;-62
2022/11/14 09:13:17;;;;;;;77.35;35.38;;;;;;;;;;5094613;28;20457;-57
2022/11/14 09:15:45;;;;;;;73.15;32.85;;;;;;;;;;5094391;28;20304;-55
2022/11/14 09:18:14;;;;;;;69.13;33.93;;;;;;;;;;5094731;28;20226;-54
2022/11/14 09:20:41;;;;;;;66.13;33.42;;;;;;;;;;5094647;28;20875;-51
2022/11/14 09:23:08;;;;;;;66.47;34.00;;;;;;;;;;5094381;28;20198;-54
2022/11/14 09:25:36;;;;;;;70.95;33.55;;;;;;;;;;5094376;28;20533;-54
2022/11/14 09:28:05;;;;;;;68.90;32.37;;;;;;;;;;5094413;28;20279;-52
2022/11/14 09:30:32;;;;;;;67.83;34.20;;;;;;;;;;5094308;28;20454;-56
2022/11/14 09:33:01;;;;;;;70.05;34.35;;;;;;;;;;5094300;28;20873;-52
2022/11/14 09:35:28;;;;;;;63.87;31.37;;;;;;;;;;5082738;28;20192;-53
2022/11/14 09:37:59;;;;;;;85.07;39.33;;;;;;;;;;5079141;28;20446;-53
2022/11/14 09:40:26;;;;;;;63.25;35.15;;;;;;;;;;5074127;28;20529;-56
2022/11/14 09:43:01;;;;;;;58.40;31.20;;;;;;;;;;5073853;28;20197;-54
2022/11/14 09:45:28;;;;;;;66.53;32.67;;;;;;;;;;5073654;28;20454;-52
2022/11/14 09:47:56;;;;;;;55.20;29.93;;;;;;;;;;5073578;28;20484;-56
2022/11/14 09:50:26;;;;;;;66.60;31.88;;;;;;;;;;5080725;28;20449;-53
2022/11/14 09:52:54;;;;;;;55.97;30.27;;;;;;;;;;5084739;28;20196;-56
2022/11/14 09:55:22;;;;;;;56.08;29.83;;;;;;;;;;5093900;28;20538;-54
2022/11/14 09:57:49;;;;;;;54.40;29.13;;;;;;;;;;5079875;28;20195;-54
2022/11/14 10:00:17;;;;;;;55.45;30.52;;;;;;;;;;5073790;28;20486;-53
2022/11/14 10:02:54;;;;;;;53.47;31.07;;;;;;;;;;5073638;28;20279;-54
2022/11/14 10:05:30;;;;;;;56.13;29.13;;;;;;;;;;5073368;28;20458;-59
2022/11/14 10:08:02;;;;;;;52.53;30.67;;;;;;;;;;5076390;28;20501;-59
2022/11/14 10:10:35;;;;;;;57.17;29.87;;;;;;;;;;5085887;28;20482;-59
2022/11/14 10:13:06;;;;;;;61.10;29.70;;;;;;;;;;5076048;28;20545;-60
2022/11/14 10:15:38;;;;;;;51.53;30.27;;;;;;;;;;5093676;28;20457;-61
2022/11/14 10:18:12;;;;;;;54.03;30.30;;;;;;;;;;5089980;28;20833;-53
2022/11/14 10:20:42;;;;;;;54.13;29.97;;;;;;;;;;5089030;28;20496;-60
2022/11/14 10:23:15;;;;;;;53.05;29.08;;;;;;;;;;5086708;28;20457;-59
2022/11/14 10:25:48;;;;;;;48.83;28.60;;;;;;;;;;5088373;28;20220;-61
2022/11/14 10:28:28;;;;;;;48.90;29.30;;;;;;;;;;5092165;28;20964;-62
2022/11/14 10:31:01;;;;;;;48.23;28.63;;;;;;;;;;5092877;28;20546;-60
2022/11/14 10:33:33;;;;;;;49.27;27.73;;;;;;;;;;5092989;28;20458;-59
2022/11/14 10:36:05;;;;;;;51.23;27.90;;;;;;;;;;5093377;28;20543;-59
2022/11/14 10:38:34;;;;;;;46.80;28.03;;;;;;;;;;5092934;28;21018;-59
2022/11/14 10:41:02;;;;;;;48.43;27.93;;;;;;;;;;5089901;28;20455;-62
2022/11/14 10:43:32;;;;;;;54.90;29.07;;;;;;;;;;5089537;28;20473;-62
2022/11/14 10:46:03;;;;;;;41.90;27.20;;;;;;;;;;5083057;28;20544;-61
2022/11/14 10:48:31;;;;;;;43.90;27.37;;;;;;;;;;5092486;28;20485;-61
2022/11/14 10:50:59;;;;;;;46.23;26.40;;;;;;;;;;5086463;28;20545;-62
2022/11/14 10:53:29;;;;;;;47.50;27.00;;;;;;;;;;5093056;28;20483;-61
2022/11/14 10:56:01;;;;;;;46.43;26.13;;;;;;;;;;5090315;28;20447;-65
2022/11/14 10:58:29;;;;;;;40.03;26.53;;;;;;;;;;5091934;28;20458;-60
2022/11/14 11:00:56;;;;;;;40.13;23.63;;;;;;;;;;5092985;28;20450;-60
2022/11/14 11:03:40;;;;;;;38.40;23.90;;;;;;;;;;5083135;28;20541;-59
2022/11/14 11:06:24;;;;;;;39.50;24.70;;;;;;;;;;5089150;28;20881;-61
2022/11/14 11:11:40;;;;;;;40.20;24.40;;;;;;;;;;5071363;28;20958;-63
2022/11/14 11:14:16;;;;;;;42.40;26.80;;;;;;;;;;5071238;28;20452;-63
2022/11/14 11:16:43;;;;;;;38.50;26.20;;;;;;;;;;5089509;28;20451;-61
2022/11/14 11:19:23;;;;;;;38.30;22.70;;;;;;;;;;5085111;28;20485;-60
2022/11/14 11:21:50;;;;;;;40.00;23.20;;;;;;;;;;5092681;28;20450;-61
2022/11/14 11:24:32;;;;;;;37.00;23.80;;;;;;;;;;5089345;28;21014;-63
2022/11/14 11:27:21;;;;;;;35.40;24.00;;;;;;;;;;5076508;28;20460;-64
2022/11/14 11:29:48;;;;;;;37.93;23.13;;;;;;;;;;5076445;28;20967;-68
2022/11/14 11:32:24;;;;;;;35.30;22.90;;;;;;;;;;5088164;28;20455;-67
2022/11/14 11:34:51;;;;;;;36.40;22.00;;;;;;;;;;5095553;28;20442;-65
2022/11/14 11:37:19;;;;;;;41.37;25.00;;;;;;;;;;5087343;28;20466;-61
2022/11/14 11:39:49;;;;;;;34.70;23.73;;;;;;;;;;5085623;28;20561;-62
2022/11/14 11:42:18;;;;;;;34.80;22.83;;;;;;;;;;5078858;28;20454;-64
2022/11/14 11:44:48;;;;;;;35.97;22.90;;;;;;;;;;5087552;28;20451;-62
2022/11/14 11:47:17;;;;;;;35.27;22.77;;;;;;;;;;5080581;28;20535;-64
2022/11/14 11:49:45;;;;;;;34.03;21.67;;;;;;;;;;5096555;28;20490;-63
2022/11/14 11:52:13;;;;;;;37.90;23.00;;;;;;;;;;5091269;28;20533;-60
2022/11/14 11:54:46;;;;;;;33.73;20.60;;;;;;;;;;5082761;28;20454;-60
2022/11/14 11:57:17;;;;;;;35.37;22.73;;;;;;;;;;5096413;28;20447;-61
2022/11/14 11:59:46;;;;;;;35.50;22.37;;;;;;;;;;5084385;28;20838;-60
2022/11/14 12:02:21;;;;;;;30.90;21.73;;;;;;;;;;5075761;28;20475;-60
2022/11/14 12:04:50;;;;;;;31.53;22.60;;;;;;;;;;5075389;28;20448;-61
2022/11/14 12:07:18;;;;;;;32.60;22.17;;;;;;;;;;5082764;28;20457;-61
2022/11/14 12:09:45;;;;;;;34.10;21.80;;;;;;;;;;5092507;28;20481;-61
2022/11/14 12:12:17;;;;;;;34.20;22.70;;;;;;;;;;5083675;28;20543;-62
2022/11/14 12:14:56;;;;;;;29.33;19.87;;;;;;;;;;5079096;28;20517;-60
2022/11/14 12:17:34;;;;;;;35.53;21.70;;;;;;;;;;5075863;28;20454;-59
2022/11/14 12:20:15;;;;;;;29.97;20.73;;;;;;;;;;5075420;28;20511;-60
2022/11/14 12:22:49;;;;;;;30.13;20.30;;;;;;;;;;5094498;28;20461;-59
2022/11/14 12:25:38;;;;;;;29.27;19.40;;;;;;;;;;5095814;28;20458;-59
2022/11/14 12:28:17;;;;;;;28.03;20.07;;;;;;;;;;5088479;28;20463;-61
2022/11/14 12:30:49;;;;;;;27.30;20.10;;;;;;;;;;5083448;28;20448;-63
2022/11/14 12:33:20;;;;;;;27.70;19.60;;;;;;;;;;5074743;28;20639;-63
2022/11/14 12:35:49;;;;;;;29.83;19.93;;;;;;;;;;5080517;28;20803;-59
2022/11/14 12:38:18;;;;;;;29.37;19.30;;;;;;;;;;5085837;28;20455;-62
2022/11/14 12:40:50;;;;;;;31.83;20.27;;;;;;;;;;5081332;28;20914;-60
2022/11/14 12:43:30;;;;;;;27.37;19.43;;;;;;;;;;5086243;28;20537;-61
2022/11/14 12:46:01;;;;;;;24.47;18.97;;;;;;;;;;5085121;28;20469;-62
2022/11/14 12:48:32;;;;;;;28.43;19.57;;;;;;;;;;5095180;28;20822;-61
2022/11/14 12:51:00;;;;;;;26.50;18.37;;;;;;;;;;5076972;28;20458;-61
2022/11/14 12:53:40;;;;;;;22.70;17.57;;;;;;;;;;5075079;28;20866;-61
2022/11/14 12:56:12;;;;;;;23.50;16.73;;;;;;;;;;5086471;28;20542;-61
2022/11/14 12:58:47;;;;;;;21.43;18.17;;;;;;;;;;5084757;28;20465;-63
2022/11/14 13:01:25;;;;;;;22.90;16.43;;;;;;;;;;5074981;28;20525;-56
2022/11/14 13:03:59;;;;;;;21.47;17.10;;;;;;;;;;5087077;28;20446;-62
2022/11/14 13:06:29;;;;;;;23.10;17.87;;;;;;;;;;5090491;28;20538;-62
2022/11/14 13:09:11;;;;;;;20.70;15.37;;;;;;;;;;5089281;28;20443;-63
2022/11/14 13:23:24;;;;;;;18.97;16.13;;;;;;;;;;5090340;28;20985;-59
2022/11/14 13:26:26;;;;;;;24.60;17.33;;;;;;;;;;5071551;28;20810;-60
2022/11/14 13:28:54;;;;;;;21.83;16.67;;;;;;;;;;5076811;28;20458;-60
2022/11/14 13:31:22;;;;;;;22.20;16.53;;;;;;;;;;5078259;28;20456;-62
2022/11/14 13:33:50;;;;;;;21.40;15.87;;;;;;;;;;5077627;28;20535;-61
2022/11/14 13:36:23;;;;;;;20.57;16.37;;;;;;;;;;5073887;28;20539;-64
2022/11/14 13:39:07;;;;;;;22.60;17.63;;;;;;;;;;5077255;28;20451;-59
2022/11/14 13:41:57;;;;;;;21.17;16.63;;;;;;;;;;5087108;28;20806;-65
2022/11/14 13:44:51;;;;;;;20.37;15.93;;;;;;;;;;5081421;28;21086;-62
2022/11/14 13:47:25;;;;;;;19.83;16.63;;;;;;;;;;5071994;28;20834;-59
2022/11/14 13:50:01;;;;;;;22.93;16.80;;;;;;;;;;5072916;28;20459;-61
2022/11/14 13:52:29;;;;;;;21.13;16.20;;;;;;;;;;5073030;28;20563;-57
2022/11/14 13:54:56;;;;;;;25.13;17.93;;;;;;;;;;5079198;28;20456;-57
2022/11/14 13:57:31;;;;;;;22.93;16.63;;;;;;;;;;5080603;28;20452;-59
2022/11/14 14:00:05;;;;;;;22.00;16.30;;;;;;;;;;5077052;28;20493;-59
2022/11/14 14:02:40;;;;;;;23.70;18.60;;;;;;;;;;5091434;28;20447;-59
2022/11/14 14:05:13;;;;;;;23.77;20.00;;;;;;;;;;5081436;28;20451;-61
2022/11/14 14:07:50;;;;;;;21.50;17.07;;;;;;;;;;5093654;28;20974;-61
2022/11/14 14:10:24;;;;;;;25.67;16.97;;;;;;;;;;5083232;28;20456;-60
2022/11/14 14:12:57;;;;;;;21.23;17.67;;;;;;;;;;5084303;28;20477;-62
2022/11/14 14:15:28;;;;;;;22.80;17.53;;;;;;;;;;5088462;28;20565;-65
2022/11/14 14:18:03;;;;;;;26.20;17.60;;;;;;;;;;5110872;28;20446;-59
2022/11/14 14:20:34;;;;;;;22.03;16.70;;;;;;;;;;5092494;28;20485;-59
2022/11/14 14:23:07;;;;;;;22.87;17.53;;;;;;;;;;5072984;28;20455;-61
2022/11/14 14:25:37;;;;;;;19.23;16.10;;;;;;;;;;5078405;28;20542;-61
2022/11/14 14:28:07;;;;;;;24.00;18.27;;;;;;;;;;5082493;28;20443;-60
2022/11/14 14:30:36;;;;;;;22.27;17.83;;;;;;;;;;5073035;28;20452;-59
2022/11/14 14:33:04;;;;;;;23.50;19.50;;;;;;;;;;5072660;28;20968;-60
2022/11/14 14:35:31;;;;;;;23.70;16.60;;;;;;;;;;5072672;28;20448;-60
2022/11/14 14:37:58;;;;;;;20.63;16.50;;;;;;;;;;5072616;28;20487;-60
2022/11/14 14:40:26;;;;;;;22.17;17.10;;;;;;;;;;5072472;28;20475;-59